Latest Weather Observations for Learmonth

IDW60801

Issued at 1:05 pm WST Sunday 26 October 2014 (issued every 30 minutes, with the page automatically refreshed every 10 minutes)

About weather observations | Map of weather stations | Latest weather observations for WA | Other Formats
Station Details ID: 005007 Name: LEARMONTH AIRPORT Lat: -22.24 Lon: 114.10 Height: 5.0 m
Data from the previous 72 hours. | See also: Recent months at Learmonth
Date/Time
WST
Temp
°C
App
Temp
°C
Dew
Point
Rel
Hum
%
Delta-T
°C
Wind Press
QNH
hPa
Press
MSL
hPa
Rain
since 9 am
mm
Dir
 
Spd
km/h
Gust
km/h
Spd
kts
Gust
kts
26/01:00pm 33.4 26.8 4.1 16 15.3 SSE 28 41 15 22 1014.8 - 0.0
26/12:30pm 32.8 26.3 4.6 17 14.8 SSE 28 37 15 20 1015.2 - 0.0
26/12:00pm 32.6 26.4 6.2 19 14.2 SSE 28 41 15 22 1015.7 1015.6 0.0
26/11:30am 31.0 24.9 6.6 21 13.1 SSE 28 37 15 20 1016.1 - 0.0
26/11:00am 30.1 24.2 7.4 24 12.3 SSE 28 39 15 21 1016.4 - 0.0
26/10:30am 28.9 23.7 9.0 28 11.0 S 26 35 14 19 1017.1 - 0.0
26/10:00am 27.4 21.9 9.2 32 10.0 SSE 28 35 15 19 1017.4 - 0.0
26/09:30am 26.4 21.0 9.5 34 9.3 SSE 28 39 15 21 1017.6 - 0.0
26/09:00am 25.0 19.2 9.4 37 8.5 S 30 39 16 21 1017.6 1017.5 0.0
26/08:30am 23.7 17.7 10.2 42 7.4 S 32 39 17 21 1017.7 - 0.0
26/08:00am 21.9 16.0 11.0 50 6.0 S 33 43 18 23 1017.5 - 0.0
26/07:30am 20.6 15.1 12.0 57 4.8 S 32 41 17 22 1017.4 - 0.0
26/07:00am 19.0 13.7 12.6 66 3.6 SSW 32 39 17 21 1017.3 - 0.0
26/06:30am 17.9 13.5 12.9 72 2.8 SSW 28 39 15 21 1017.0 - 0.0
26/06:00am 17.3 12.9 13.0 76 2.4 SSW 28 35 15 19 1016.7 1016.6 0.0
26/05:30am 17.2 13.6 13.1 77 2.3 SW 24 30 13 16 1016.3 - 0.0
26/05:00am 17.4 13.8 13.1 76 2.4 SSW 24 32 13 17 1016.0 - 0.0
26/04:30am 17.7 14.4 12.9 73 2.7 SSW 22 28 12 15 1016.1 - 0.0
26/04:00am 18.0 14.3 12.8 71 2.9 SSW 24 32 13 17 1015.8 - 0.0
26/03:30am 18.4 14.8 12.9 70 3.1 SSW 24 32 13 17 1015.8 - 0.0
26/03:00am 18.7 15.1 13.0 69 3.2 SSW 24 32 13 17 1015.5 1015.4 0.0
26/02:30am 19.0 15.5 13.4 70 3.2 SSW 24 32 13 17 1015.6 - 0.0
26/02:00am 19.3 15.5 13.7 70 3.2 SSW 26 35 14 19 1015.7 - 0.0
26/01:30am 19.7 15.6 13.8 69 3.4 SSW 28 39 15 21 1015.8 - 0.0
26/01:00am 19.9 15.5 14.0 69 3.4 SSW 30 39 16 21 1016.0 - 0.0
26/12:30am 20.3 15.9 14.1 67 3.6 SSW 30 43 16 23 1016.3 - 0.0
26/12:00am 20.8 16.5 14.3 66 3.8 SSW 30 39 16 21 1016.4 1016.3 0.0
 
Date/Time
WST
Temp
°C
App
Temp
°C
Dew
Point
Rel
Hum
%
Delta-T
°C
Wind Press
QNH
hPa
Press
MSL
hPa
Rain
since 9 am
mm
Dir
 
Spd
km/h
Gust
km/h
Spd
kts
Gust
kts
25/11:30pm 21.0 17.7 15.1 69 3.5 SSW 26 37 14 20 1016.5 - 0.0
25/11:00pm 21.1 17.3 15.7 71 3.2 SSW 30 37 16 20 1016.6 - 0.0
25/10:30pm 21.1 17.4 16.1 73 3.0 SSW 30 37 16 20 1016.7 - 0.0
25/10:00pm 21.3 18.0 16.1 72 3.1 SSW 28 37 15 20 1016.7 - 0.0
25/09:30pm 21.4 18.5 16.1 72 3.2 SSW 26 35 14 19 1016.7 - 0.0
25/09:00pm 21.8 18.6 16.2 70 3.4 SSW 28 39 15 21 1016.7 1016.6 0.0
25/08:30pm 22.1 18.7 15.9 68 3.7 SSW 28 37 15 20 1016.6 - 0.0
25/08:00pm 22.4 19.3 15.7 66 4.0 SSW 26 35 14 19 1016.6 - 0.0
25/07:30pm 22.9 19.5 14.8 60 4.8 SSW 26 35 14 19 1016.4 - 0.0
25/07:00pm 23.6 20.1 14.4 56 5.4 SSW 26 41 14 22 1016.1 - 0.0
25/06:30pm 24.6 20.5 13.9 51 6.3 SSW 28 43 15 23 1015.9 - 0.0
25/06:00pm 26.1 21.6 13.7 46 7.3 SSW 30 39 16 21 1015.6 1015.5 0.0
25/05:30pm 27.6 22.6 13.4 41 8.4 SSW 32 39 17 21 1015.4 - 0.0
25/05:00pm 28.7 23.6 13.1 38 9.2 SSW 32 39 17 21 1015.2 - 0.0
25/04:30pm 29.7 25.3 13.0 35 9.9 SW 28 39 15 21 1015.2 - 0.0
25/04:00pm 30.7 27.1 13.0 33 10.5 SSW 24 33 13 18 1015.2 - 0.0
25/03:30pm 31.2 27.1 12.6 32 11.0 SSW 26 35 14 19 1015.3 - 0.0
25/03:00pm 31.6 26.9 12.0 30 11.5 SSW 28 35 15 19 1015.4 1015.3 0.0
25/02:30pm 32.6 28.3 10.6 26 12.7 SW 24 37 13 20 1015.3 - 0.0
25/02:00pm 32.2 27.5 10.7 26 12.4 SW 26 33 14 18 1015.4 - 0.0
25/01:30pm 32.3 28.2 11.6 28 12.1 SW 24 41 13 22 1015.6 - 0.0
25/01:00pm 31.9 27.3 9.7 25 12.6 SSW 24 39 13 21 1015.9 - 0.0
25/12:30pm 31.4 27.7 10.2 27 12.1 S 20 30 11 16 1016.3 - 0.0
25/12:00pm 30.3 27.0 11.0 30 11.1 S 19 28 10 15 1016.9 1016.8 0.0
25/11:30am 29.0 25.2 11.2 33 10.2 S 22 33 12 18 1017.1 - 0.0
25/11:00am 27.5 24.5 12.5 39 8.7 S 20 32 11 17 1017.5 - 0.0
25/10:30am 26.9 23.1 12.4 40 8.4 S 24 35 13 19 1017.9 - 0.0
25/10:00am 26.0 21.9 12.7 43 7.7 S 26 37 14 20 1018.3 - 0.0
25/09:30am 24.5 20.4 12.7 47 6.8 S 26 37 14 20 1018.5 - 0.0
25/09:00am 24.0 20.5 13.3 51 6.2 S 24 32 13 17 1018.5 1018.4 0.0
25/08:30am 22.8 17.8 13.5 55 5.4 S 32 43 17 23 1018.4 - 0.0
25/08:00am 21.9 16.2 13.0 57 5.1 S 35 46 19 25 1018.4 - 0.0
25/07:30am 21.1 16.2 13.6 62 4.3 S 32 41 17 22 1018.2 - 0.0
25/07:00am 20.1 16.7 13.8 67 3.6 S 24 35 13 19 1017.9 - 0.0
25/06:30am 18.6 16.7 14.1 75 2.6 S 17 24 9 13 1017.4 - 0.0
25/06:00am 17.3 15.4 14.1 81 1.8 SSW 17 22 9 12 1016.7 1016.6 0.0
25/05:30am 17.5 15.0 14.2 81 1.9 SSW 20 26 11 14 1016.2 - 0.0
25/05:00am 17.9 15.7 14.4 80 2.0 SSW 19 26 10 14 1016.0 - 0.0
25/04:30am 18.2 15.1 14.4 78 2.2 SSW 24 33 13 18 1015.5 - 0.0
25/04:00am 18.4 14.9 14.6 78 2.2 SSW 26 35 14 19 1015.2 - 0.0
25/03:30am 18.4 15.3 14.6 78 2.2 SSW 24 32 13 17 1015.2 - 0.0
25/03:00am 18.6 16.0 14.8 78 2.2 SSW 22 28 12 15 1015.0 1014.9 0.0
25/02:30am 18.7 16.3 15.5 81 1.9 SSW 22 28 12 15 1014.9 - 0.0
25/02:00am 19.0 16.4 15.8 82 1.9 SSW 24 32 13 17 1014.8 - 0.0
25/01:30am 19.5 17.0 16.2 81 2.0 SSW 24 33 13 18 1015.0 - 0.0
25/01:00am 19.9 17.3 16.0 78 2.3 SSW 24 32 13 17 1015.0 - 0.0
25/12:30am 20.2 16.8 15.8 76 2.6 SSW 28 37 15 20 1015.1 - 0.0
25/12:00am 20.0 17.2 16.3 79 2.2 SSW 26 32 14 17 1015.2 1015.1 0.0
 
Date/Time
WST
Temp
°C
App
Temp
°C
Dew
Point
Rel
Hum
%
Delta-T
°C
Wind Press
QNH
hPa
Press
MSL
hPa
Rain
since 9 am
mm
Dir
 
Spd
km/h
Gust
km/h
Spd
kts
Gust
kts
24/11:30pm 20.1 18.2 16.6 80 2.1 SSW 22 33 12 18 1015.5 - 0.0
24/11:00pm 20.5 18.1 16.5 78 2.4 SSW 24 32 13 17 1015.7 - 0.0
24/10:30pm 20.8 18.4 16.3 75 2.7 SSW 24 32 13 17 1015.8 - 0.0
24/10:00pm 20.7 18.1 15.8 73 2.9 SSW 24 32 13 17 1015.8 - 0.0
24/09:30pm 20.8 18.8 15.6 72 3.1 SSW 20 26 11 14 1015.7 - 0.0
24/09:00pm 21.0 19.4 15.1 69 3.5 SSW 17 22 9 12 1015.4 1015.3 0.0
24/08:30pm 21.1 20.1 14.6 66 3.8 S 13 19 7 10 1015.1 - 0.0
24/08:00pm 21.7 20.3 14.5 63 4.2 SSW 15 20 8 11 1014.6 - 0.0
24/07:30pm 22.4 18.9 14.4 60 4.7 SSW 26 35 14 19 1014.0 - 0.0
24/07:00pm 22.9 21.1 13.2 54 5.6 S 15 19 8 10 1013.7 - 0.0
24/06:30pm 24.1 21.2 12.4 48 6.7 SSW 19 24 10 13 1013.2 - 0.0
24/06:00pm 25.6 20.9 10.8 39 8.3 SSW 26 35 14 19 1012.9 1012.8 0.0
24/05:30pm 27.7 21.9 9.5 32 10.1 SSW 30 39 16 21 1012.4 - 0.0
24/05:00pm 29.7 23.2 6.7 23 12.3 SW 30 41 16 22 1011.9 - 0.0
24/04:30pm 30.9 23.5 5.2 19 13.5 SW 33 43 18 23 1011.5 - 0.0
24/04:00pm 31.8 24.8 4.3 17 14.3 SW 30 39 16 21 1011.6 - 0.0
24/03:30pm 33.3 26.4 2.4 14 15.7 SW 28 39 15 21 1011.7 - 0.0
24/03:00pm 33.6 27.2 1.1 12 16.2 SW 24 35 13 19 1011.7 1011.6 0.0
24/02:30pm 33.4 26.5 4.5 16 15.2 SW 30 39 16 21 1012.0 - 0.0
24/02:00pm 34.1 28.5 5.4 16 15.4 SW 24 33 13 18 1012.0 - 0.0
24/01:30pm 35.1 29.7 2.4 13 16.8 SW 20 32 11 17 1012.3 - 0.0
24/01:00pm 34.4 29.1 3.1 14 16.2 SW 20 32 11 17 1012.3 - 0.0
24/12:30pm 33.2 28.7 6.8 19 14.4 SW 20 32 11 17 1012.5 - 0.0
24/12:00pm 32.3 28.1 8.1 22 13.4 S 20 28 11 15 1013.0 1012.9 0.0
24/11:30am 31.1 27.2 8.6 24 12.5 SW 19 22 10 12 1013.5 - 0.0
24/11:00am 30.1 26.4 9.6 28 11.5 SSW 19 28 10 15 1014.1 - 0.0
24/10:30am 28.7 25.7 10.8 33 10.2 SSW 17 22 9 12 1014.3 - 0.0
24/10:00am 27.5 24.3 11.4 36 9.2 S 19 24 10 13 1014.8 - 0.0
24/09:30am 25.7 21.7 11.9 42 7.9 S 24 30 13 16 1015.3 - 0.0
24/09:00am 24.5 20.9 13.1 49 6.6 S 24 33 13 18 1015.4 1015.3 0.0
24/08:30am 23.7 19.7 14.0 54 5.7 S 28 37 15 20 1015.5 - 0.0
24/08:00am 22.1 17.4 14.2 61 4.6 S 32 41 17 22 1015.3 - 0.0
24/07:30am 21.0 17.7 15.1 69 3.5 SSW 26 37 14 20 1015.2 - 0.0
24/07:00am 19.2 17.1 15.1 77 2.4 SSW 20 28 11 15 1015.2 - 0.0
24/06:30am 17.8 15.8 15.0 84 1.6 SSW 19 24 10 13 1014.9 - 0.0
24/06:00am 17.0 15.0 14.9 87 1.2 SSW 19 22 10 12 1014.6 1014.5 0.0
24/05:30am 16.9 15.7 15.0 88 1.1 SSW 15 19 8 10 1014.5 - 0.0
24/05:00am 17.1 15.5 15.0 87 1.2 SSW 17 22 9 12 1014.3 - 0.0
24/04:30am 17.5 15.6 15.1 86 1.4 SSW 19 22 10 12 1014.1 - 0.0
24/04:00am 17.6 16.0 15.0 85 1.5 SSW 17 24 9 13 1014.0 - 0.0
24/03:30am 17.8 15.8 15.0 84 1.6 SSW 19 24 10 13 1014.1 - 0.0
24/03:00am 17.7 15.7 14.9 84 1.6 SSW 19 22 10 12 1014.1 1014.0 0.0
24/02:30am 18.0 15.8 14.9 82 1.8 SSW 20 24 11 13 1014.3 - 0.0
24/02:00am 18.3 16.3 14.9 80 2.0 SSW 19 22 10 12 1014.3 - 0.0
24/01:30am 18.7 16.6 14.7 77 2.3 SSW 19 22 10 12 1014.5 - 0.0
24/01:00am 19.3 17.2 14.8 75 2.6 SSW 19 28 10 15 1014.7 - 0.0
24/12:30am 19.9 17.0 15.0 73 2.9 SSW 24 30 13 16 1014.8 - 0.0
24/12:00am 20.0 17.4 14.9 72 3.0 SSW 22 32 12 17 1015.1 1015.0 0.0
 
Date/Time
WST
Temp
°C
App
Temp
°C
Dew
Point
Rel
Hum
%
Delta-T
°C
Wind Press
QNH
hPa
Press
MSL
hPa
Rain
since 9 am
mm
Dir
 
Spd
km/h
Gust
km/h
Spd
kts
Gust
kts
23/11:30pm 20.2 17.1 14.5 69 3.3 SSW 24 30 13 16 1015.2 - 0.0
23/11:00pm 20.5 17.6 14.1 66 3.7 SW 22 32 12 17 1015.4 - 0.0
23/10:30pm 20.5 17.8 13.5 64 4.0 SW 20 28 11 15 1015.5 - 0.0
23/10:00pm 20.5 17.8 13.5 64 4.0 SW 20 26 11 14 1015.5 - 0.0
23/09:30pm 20.7 18.1 13.8 64 4.0 SW 20 28 11 15 1015.5 - 0.0
23/09:00pm 21.1 17.9 14.2 64 4.0 SW 24 30 13 16 1015.3 1015.2 0.0
23/08:30pm 21.2 18.3 14.1 64 4.1 SW 22 30 12 16 1015.0 - 0.0
23/08:00pm 21.5 18.2 14.1 62 4.3 SW 24 32 13 17 1015.0 - 0.0
23/07:30pm 21.9 18.2 14.0 61 4.6 SSW 26 33 14 18 1014.8 - 0.0
23/07:00pm 22.4 18.4 14.0 59 4.9 SSW 28 39 15 21 1014.5 - 0.0
23/06:30pm 23.5 19.4 13.7 54 5.7 SSW 28 39 15 21 1014.2 - 0.0
23/06:00pm 24.9 20.1 13.0 47 6.9 SSW 30 39 16 21 1013.7 1013.6 0.0
23/05:30pm 26.5 21.5 12.1 40 8.3 SSW 30 39 16 21 1013.3 - 0.0
23/05:00pm 28.1 22.4 11.1 34 9.7 SSW 32 41 17 22 1013.0 - 0.0
23/04:30pm 28.9 23.3 10.1 31 10.6 SW 30 39 16 21 1012.9 - 0.0
23/04:00pm 30.2 24.6 10.3 29 11.3 SSW 30 39 16 21 1013.0 - 0.0
23/03:30pm 30.3 25.1 10.2 28 11.4 SSW 28 39 15 21 1013.0 - 0.0
23/03:00pm 31.1 25.4 9.7 26 12.1 SSW 30 39 16 21 1013.0 1012.9 0.0
23/02:30pm 31.2 26.2 9.6 26 12.2 SW 26 35 14 19 1013.2 - 0.0
23/02:00pm 31.4 26.8 9.7 26 12.3 SW 24 32 13 17 1013.4 - 0.0
23/01:30pm 31.5 27.2 10.6 27 12.0 SSW 24 32 13 17 1013.7 - 0.0

Other Formats:

Comma delimited format used in spreadsheet applications
http://www.bom.gov.au/fwo/IDW60801/IDW60801.94302.axf

JavaScript Object Notation format (JSON) in row-major order
http://www.bom.gov.au/fwo/IDW60801/IDW60801.94302.json